Time;durP1;ratioP1;P1;durP2;ratioP2;P2;SDS_P1;SDS_P2;PMS_P1;PMS_P2;Temp;Humidity;BMP_temperature;BMP_pressure;BME280_temperature;BME280_humidity;BME280_pressure;Samples;Min_cycle;Max_cycle;Signal;HPM_P1;HPM_P2
2023/04/26 00:01:30;;;;;;;16.77;2.25;;;2.90;87.40;;;;;;4990804;28;20057;-77
2023/04/26 00:03:57;;;;;;;5.38;1.55;;;3.00;87.40;;;;;;4991365;28;20054;-77
2023/04/26 00:06:26;;;;;;;8.52;1.52;;;2.90;87.00;;;;;;4991994;28;20081;-77
2023/04/26 00:08:53;;;;;;;24.77;2.25;;;3.00;87.60;;;;;;4974233;28;20659;-76
2023/04/26 00:11:20;;;;;;;12.85;1.77;;;2.90;87.20;;;;;;4993009;28;20046;-77
2023/04/26 00:13:47;;;;;;;12.23;1.92;;;2.90;87.60;;;;;;4991246;28;20049;-77
2023/04/26 00:16:15;;;;;;;15.30;1.90;;;2.90;87.50;;;;;;4974832;28;20112;-77
2023/04/26 00:18:42;;;;;;;14.00;1.95;;;2.90;87.60;;;;;;4993372;28;20942;-77
2023/04/26 00:21:09;;;;;;;13.27;1.60;;;2.80;87.90;;;;;;4991503;28;20054;-77
2023/04/26 00:23:35;;;;;;;10.30;2.00;;;2.80;88.10;;;;;;4992570;28;20057;-77
2023/04/26 00:26:03;;;;;;;12.95;1.67;;;2.80;87.40;;;;;;4992626;28;20053;-77
2023/04/26 00:28:30;;;;;;;7.13;1.40;;;2.80;87.60;;;;;;4975035;28;20060;-77
2023/04/26 00:30:57;;;;;;;14.25;1.30;;;2.70;87.70;;;;;;4990067;28;20058;-77
2023/04/26 00:33:24;;;;;;;14.38;1.48;;;2.70;88.10;;;;;;4973181;28;20050;-77
2023/04/26 00:35:51;;;;;;;12.32;1.95;;;2.70;87.90;;;;;;4993003;28;20507;-77
2023/04/26 00:38:18;;;;;;;9.75;1.20;;;2.70;88.00;;;;;;4983004;28;20100;-77
2023/04/26 00:40:45;;;;;;;22.13;2.35;;;2.60;88.40;;;;;;4975018;28;20488;-77
2023/04/26 00:43:12;;;;;;;10.55;1.45;;;2.60;88.00;;;;;;4975371;28;20478;-77
2023/04/26 00:45:39;;;;;;;13.20;1.73;;;2.60;88.20;;;;;;4988898;28;20072;-77
2023/04/26 00:48:06;;;;;;;8.00;1.60;;;2.60;88.30;;;;;;4978316;28;21171;-77
2023/04/26 00:50:33;;;;;;;14.07;2.20;;;2.50;88.50;;;;;;4993023;28;20122;-77
2023/04/26 00:53:01;;;;;;;10.75;2.17;;;2.50;88.60;;;;;;4984758;28;20046;-77
2023/04/26 00:55:28;;;;;;;9.48;1.50;;;2.50;89.00;;;;;;4994226;28;20064;-76
2023/04/26 00:57:55;;;;;;;9.68;1.85;;;2.50;88.60;;;;;;4995423;28;20061;-77
2023/04/26 01:00:22;;;;;;;18.48;1.98;;;2.50;88.40;;;;;;4994552;28;20046;-77
2023/04/26 01:02:49;;;;;;;7.85;1.55;;;2.50;88.40;;;;;;4992787;28;20054;-77
2023/04/26 01:05:17;;;;;;;11.93;1.70;;;2.50;88.70;;;;;;4995155;28;20513;-77
2023/04/26 01:07:45;;;;;;;13.00;2.00;;;2.50;88.70;;;;;;4993410;28;20447;-77
2023/04/26 01:10:11;;;;;;;11.75;1.40;;;2.40;88.70;;;;;;4995779;28;20526;-77
2023/04/26 01:12:39;;;;;;;12.93;2.05;;;2.40;89.00;;;;;;4977863;28;20537;-77
2023/04/26 01:15:06;;;;;;;10.93;1.52;;;2.40;89.10;;;;;;4985932;28;20049;-77
2023/04/26 01:17:33;;;;;;;9.02;1.35;;;2.40;89.20;;;;;;4977313;28;20999;-77
2023/04/26 01:20:00;;;;;;;13.13;1.52;;;2.40;89.20;;;;;;4993723;28;20108;-77
2023/04/26 01:22:31;;;;;;;14.85;2.03;;;2.30;89.40;;;;;;4993791;28;20058;-77
2023/04/26 01:25:00;;;;;;;23.90;2.17;;;2.40;89.60;;;;;;4978366;28;20050;-77
2023/04/26 01:27:27;;;;;;;8.55;1.50;;;2.30;89.50;;;;;;4994380;28;20132;-77
2023/04/26 01:29:54;;;;;;;14.30;1.48;;;2.30;89.70;;;;;;4993569;28;20094;-77
2023/04/26 01:32:21;;;;;;;11.00;1.98;;;2.40;89.80;;;;;;4975477;28;20053;-77
2023/04/26 01:34:47;;;;;;;9.20;1.30;;;2.40;89.90;;;;;;4977951;28;20080;-77
2023/04/26 01:37:14;;;;;;;16.92;2.13;;;2.40;89.40;;;;;;4993802;28;20461;-77
2023/04/26 01:39:41;;;;;;;11.55;1.92;;;2.40;89.30;;;;;;4993333;28;20632;-77
2023/04/26 01:42:08;;;;;;;23.63;2.53;;;2.30;89.70;;;;;;4976883;28;20069;-77
2023/04/26 01:44:35;;;;;;;6.75;1.83;;;2.20;89.60;;;;;;4994618;28;20427;-77
2023/04/26 01:47:02;;;;;;;6.43;1.20;;;2.20;89.70;;;;;;4992083;28;20830;-77
2023/04/26 01:49:28;;;;;;;16.73;1.63;;;2.30;89.50;;;;;;4992770;28;20054;-77
2023/04/26 01:51:55;;;;;;;11.35;1.60;;;2.30;89.60;;;;;;4993789;28;20561;-77
2023/04/26 01:54:22;;;;;;;24.65;1.70;;;2.20;90.00;;;;;;4995302;28;20053;-77
2023/04/26 01:56:49;;;;;;;8.77;1.20;;;2.20;90.00;;;;;;4992871;28;20050;-77
2023/04/26 01:59:16;;;;;;;8.70;1.63;;;2.20;89.90;;;;;;4993692;28;20050;-77
2023/04/26 02:01:43;;;;;;;11.30;1.33;;;2.20;90.20;;;;;;4994412;28;20479;-77
2023/04/26 02:04:10;;;;;;;11.10;1.88;;;2.20;90.10;;;;;;4984365;28;20501;-77
2023/04/26 02:06:37;;;;;;;18.25;2.22;;;2.20;90.10;;;;;;4992942;28;20160;-76
2023/04/26 02:09:04;;;;;;;8.13;1.83;;;2.20;90.00;;;;;;4985610;28;20053;-76
2023/04/26 02:11:31;;;;;;;17.23;1.85;;;2.20;90.10;;;;;;4968479;28;20082;-76
2023/04/26 02:13:58;;;;;;;9.82;2.13;;;2.20;90.10;;;;;;4977671;28;20050;-76
2023/04/26 02:16:25;;;;;;;8.50;1.65;;;2.20;90.40;;;;;;4994421;28;20117;-77
2023/04/26 02:18:53;;;;;;;11.30;1.48;;;2.20;90.10;;;;;;4975798;28;20047;-77
2023/04/26 02:21:21;;;;;;;7.78;1.75;;;2.10;90.00;;;;;;4991095;28;20048;-77
2023/04/26 02:23:48;;;;;;;11.30;1.60;;;2.20;90.10;;;;;;4992781;28;20047;-76
2023/04/26 02:26:15;;;;;;;7.35;1.50;;;2.30;89.60;;;;;;4975189;28;20057;-77
2023/04/26 02:28:42;;;;;;;9.35;1.80;;;2.30;89.50;;;;;;4992040;28;20574;-76
2023/04/26 02:31:09;;;;;;;11.88;1.75;;;2.30;89.20;;;;;;4995733;28;20739;-77
2023/04/26 02:33:37;;;;;;;9.30;1.30;;;2.30;89.20;;;;;;4992702;28;20058;-76
2023/04/26 02:36:05;;;;;;;12.57;1.23;;;2.30;89.40;;;;;;4990838;28;20061;-77
2023/04/26 02:38:34;;;;;;;13.73;2.08;;;2.20;89.40;;;;;;4975541;28;20078;-77
2023/04/26 02:41:02;;;;;;;6.28;1.88;;;2.20;89.60;;;;;;4993636;28;20054;-77
2023/04/26 02:43:29;;;;;;;7.00;2.20;;;2.30;89.80;;;;;;4974679;28;20049;-77
2023/04/26 02:46:00;;;;;;;10.60;1.80;;;2.30;89.60;;;;;;4992138;28;20046;-77
2023/04/26 02:48:27;;;;;;;11.38;1.73;;;2.30;89.80;;;;;;4991669;28;20145;-76
2023/04/26 02:50:54;;;;;;;11.80;1.67;;;2.30;89.90;;;;;;4993158;28;20168;-76
2023/04/26 02:53:21;;;;;;;10.73;1.95;;;2.30;90.10;;;;;;4992450;28;20514;-77
2023/04/26 02:55:48;;;;;;;23.20;2.72;;;2.20;90.20;;;;;;4976095;28;20787;-76
2023/04/26 02:58:14;;;;;;;8.85;1.80;;;2.20;90.20;;;;;;4992490;28;20057;-76
2023/04/26 03:00:48;;;;;;;12.38;1.65;;;2.10;90.70;;;;;;4992051;28;20455;-77
2023/04/26 03:03:15;;;;;;;7.85;1.77;;;2.10;90.80;;;;;;4974516;28;20058;-76
2023/04/26 03:05:42;;;;;;;21.80;2.33;;;2.00;91.10;;;;;;4991747;28;20077;-76
2023/04/26 03:08:09;;;;;;;12.80;2.33;;;2.00;91.00;;;;;;4993554;28;20371;-76
2023/04/26 03:10:36;;;;;;;10.73;2.15;;;2.00;90.90;;;;;;4991867;28;20058;-76
2023/04/26 03:13:04;;;;;;;10.60;1.55;;;2.00;91.10;;;;;;4973582;28;20396;-77
2023/04/26 03:15:30;;;;;;;9.98;1.63;;;1.90;91.40;;;;;;4993371;28;20507;-77
2023/04/26 03:17:57;;;;;;;13.35;1.88;;;1.90;91.80;;;;;;4990214;28;20056;-77
2023/04/26 03:20:24;;;;;;;8.43;2.03;;;1.90;92.00;;;;;;4993994;28;20057;-77
2023/04/26 03:22:51;;;;;;;13.25;1.92;;;1.90;91.90;;;;;;4994690;28;20573;-77
2023/04/26 03:25:18;;;;;;;10.27;1.73;;;1.90;92.00;;;;;;4993202;28;20053;-76
2023/04/26 03:27:45;;;;;;;9.82;1.83;;;1.90;91.70;;;;;;4992411;28;20049;-77
2023/04/26 03:30:13;;;;;;;11.73;1.65;;;1.90;91.90;;;;;;4991851;28;20062;-76
2023/04/26 03:32:40;;;;;;;19.38;2.10;;;1.90;92.20;;;;;;4993790;28;20054;-77
2023/04/26 03:35:07;;;;;;;20.13;2.03;;;1.80;92.40;;;;;;4992702;28;20734;-76
2023/04/26 03:37:34;;;;;;;7.85;1.38;;;1.80;92.50;;;;;;4992034;28;20060;-77
2023/04/26 03:40:01;;;;;;;15.70;2.35;;;1.80;92.60;;;;;;4976498;28;20054;-76
2023/04/26 03:42:27;;;;;;;11.55;2.22;;;1.80;92.50;;;;;;4992551;28;20050;-77
2023/04/26 03:44:54;;;;;;;10.65;2.08;;;1.90;92.90;;;;;;4990992;28;20396;-76
2023/04/26 03:47:21;;;;;;;6.30;2.13;;;1.80;92.70;;;;;;4976162;28;20450;-77
2023/04/26 03:49:48;;;;;;;19.05;2.58;;;1.80;92.80;;;;;;4993478;28;20403;-76
2023/04/26 03:52:15;;;;;;;14.73;2.95;;;1.80;93.10;;;;;;4974646;28;20046;-77
2023/04/26 03:54:42;;;;;;;13.88;2.45;;;1.80;93.20;;;;;;4992714;28;20501;-77
2023/04/26 03:57:09;;;;;;;10.88;2.03;;;1.80;93.30;;;;;;4991900;28;20054;-77
2023/04/26 03:59:36;;;;;;;19.65;2.65;;;1.80;93.10;;;;;;4992680;28;20068;-77
2023/04/26 04:02:03;;;;;;;16.13;1.95;;;1.80;93.40;;;;;;4991594;28;20447;-77
2023/04/26 04:04:30;;;;;;;9.52;1.90;;;1.80;93.50;;;;;;4991765;28;20404;-77
2023/04/26 04:06:58;;;;;;;12.25;1.42;;;1.70;93.70;;;;;;4974220;28;20137;-77
2023/04/26 04:09:25;;;;;;;22.10;2.40;;;1.80;93.80;;;;;;4991157;28;20056;-76
2023/04/26 04:11:52;;;;;;;11.32;1.80;;;1.80;94.00;;;;;;4992571;28;20759;-75
2023/04/26 04:14:19;;;;;;;9.90;1.73;;;1.80;94.10;;;;;;4991649;28;20050;-76
2023/04/26 04:16:45;;;;;;;4.65;1.88;;;1.80;94.30;;;;;;4991701;28;20415;-76
2023/04/26 04:19:12;;;;;;;14.63;2.38;;;1.80;94.00;;;;;;4992701;28;20093;-77
2023/04/26 04:21:41;;;;;;;12.48;2.67;;;1.80;94.10;;;;;;4992302;28;20768;-77
2023/04/26 04:24:08;;;;;;;16.20;2.60;;;1.80;94.20;;;;;;4991675;28;20054;-77
2023/04/26 04:26:35;;;;;;;12.52;2.00;;;1.90;94.20;;;;;;4993251;28;20398;-77
2023/04/26 04:29:07;;;;;;;11.70;1.98;;;1.90;94.50;;;;;;4996801;28;20046;-77
2023/04/26 04:31:35;;;;;;;14.32;1.80;;;1.90;94.30;;;;;;4977712;28;20049;-77
2023/04/26 04:34:02;;;;;;;16.45;2.13;;;1.90;94.20;;;;;;4995891;28;20054;-76
2023/04/26 04:36:30;;;;;;;13.77;1.98;;;2.00;94.30;;;;;;4995313;28;21262;-76
2023/04/26 04:38:57;;;;;;;14.38;2.63;;;2.00;94.10;;;;;;4986736;28;20395;-77
2023/04/26 04:41:23;;;;;;;6.68;2.10;;;2.10;93.80;;;;;;4997497;28;20503;-76
2023/04/26 04:43:50;;;;;;;8.82;2.13;;;2.10;93.70;;;;;;4995888;28;20151;-76
2023/04/26 04:46:17;;;;;;;21.20;2.08;;;2.10;94.10;;;;;;4979849;28;20058;-76
2023/04/26 04:48:44;;;;;;;10.35;2.83;;;2.20;93.80;;;;;;4993738;28;20053;-76
2023/04/26 04:51:11;;;;;;;16.60;2.97;;;2.30;93.50;;;;;;4987530;28;20409;-77
2023/04/26 04:53:37;;;;;;;9.60;3.03;;;2.30;93.00;;;;;;4993241;28;20058;-77
2023/04/26 04:56:05;;;;;;;15.00;2.65;;;2.40;93.20;;;;;;4995993;28;20057;-81
2023/04/26 04:58:32;;;;;;;16.40;3.00;;;2.40;93.10;;;;;;4997972;28;20529;-77
2023/04/26 05:01:00;;;;;;;17.65;2.67;;;2.50;93.40;;;;;;4996881;28;20054;-78
2023/04/26 05:03:27;;;;;;;13.35;2.20;;;2.60;95.20;;;;;;4978055;28;20050;-77
2023/04/26 05:05:54;;;;;;;7.97;2.10;;;2.70;93.90;;;;;;4997254;28;20453;-80
2023/04/26 05:08:21;;;;;;;11.65;2.15;;;2.70;92.90;;;;;;4993867;28;20476;-82
2023/04/26 05:10:48;;;;;;;10.13;2.22;;;2.70;93.80;;;;;;4993674;28;20050;-80
2023/04/26 05:13:14;;;;;;;25.38;4.20;;;2.80;94.10;;;;;;4994919;28;20072;-86
2023/04/26 05:15:41;;;;;;;17.15;2.03;;;2.80;94.40;;;;;;4978375;28;20414;-82
2023/04/26 05:18:08;;;;;;;14.63;2.20;;;2.80;93.10;;;;;;4996239;28;20053;-80
2023/04/26 05:20:35;;;;;;;15.90;2.10;;;2.90;93.20;;;;;;4976713;28;20483;-82
2023/04/26 05:23:02;;;;;;;19.70;2.65;;;2.90;92.80;;;;;;4978705;28;20053;-79
2023/04/26 05:25:29;;;;;;;13.45;3.50;;;3.00;93.20;;;;;;4992240;28;20054;-80
2023/04/26 05:27:56;;;;;;;14.38;2.30;;;3.00;92.20;;;;;;4990051;28;20054;-86
2023/04/26 05:30:23;;;;;;;24.75;3.58;;;3.10;92.30;;;;;;4996414;28;20052;-83
2023/04/26 05:32:50;;;;;;;13.20;2.10;;;3.10;91.80;;;;;;4997922;28;20045;-79
2023/04/26 05:35:16;;;;;;;8.95;1.90;;;3.20;92.20;;;;;;4983736;28;20157;-81
2023/04/26 05:37:43;;;;;;;12.13;1.98;;;3.20;92.10;;;;;;4978114;28;20058;-79
2023/04/26 05:40:11;;;;;;;8.25;2.28;;;3.30;91.90;;;;;;4995578;28;20710;-81
2023/04/26 05:42:38;;;;;;;19.38;4.25;;;3.30;92.80;;;;;;4995542;28;20061;-80
2023/04/26 05:45:05;;;;;;;16.25;2.55;;;3.40;90.50;;;;;;4977041;28;20057;-79
2023/04/26 05:47:32;;;;;;;21.73;2.95;;;3.50;89.20;;;;;;4992634;28;20457;-79
2023/04/26 05:49:59;;;;;;;16.25;2.20;;;3.60;88.60;;;;;;4995358;28;20085;-78
2023/04/26 05:52:26;;;;;;;9.32;2.30;;;3.60;89.90;;;;;;4995672;28;20054;-74
2023/04/26 05:54:53;;;;;;;8.30;2.42;;;3.70;90.60;;;;;;4994580;28;20050;-74
2023/04/26 05:57:19;;;;;;;13.00;2.35;;;3.80;89.40;;;;;;4977007;28;20054;-74
2023/04/26 05:59:47;;;;;;;14.65;1.92;;;3.90;88.50;;;;;;4994513;28;20061;-73
2023/04/26 06:02:13;;;;;;;14.25;2.08;;;4.00;88.60;;;;;;4975432;28;20049;-73
2023/04/26 06:04:40;;;;;;;11.23;2.22;;;4.10;88.30;;;;;;4995509;28;20646;-73
2023/04/26 06:07:08;;;;;;;21.35;2.65;;;4.20;87.70;;;;;;4995549;28;20057;-74
2023/04/26 06:09:35;;;;;;;18.50;2.15;;;4.30;87.00;;;;;;4994210;28;20590;-74
2023/04/26 06:12:02;;;;;;;10.57;2.13;;;4.60;86.10;;;;;;4979353;28;20050;-73
2023/04/26 06:14:29;;;;;;;12.02;2.33;;;4.80;84.40;;;;;;4984274;28;20054;-74
2023/04/26 06:16:56;;;;;;;10.68;2.22;;;5.10;83.40;;;;;;4992043;28;20100;-74
2023/04/26 06:19:24;;;;;;;12.07;2.10;;;5.40;82.10;;;;;;4996244;28;20057;-73
2023/04/26 06:21:53;;;;;;;16.33;2.15;;;5.90;81.40;;;;;;4994672;28;20054;-73
2023/04/26 06:24:20;;;;;;;12.73;1.98;;;6.40;78.60;;;;;;4993120;28;20057;-73
2023/04/26 06:26:47;;;;;;;13.73;1.90;;;6.50;78.30;;;;;;4974069;28;20046;-73
2023/04/26 06:29:14;;;;;;;12.73;1.80;;;7.00;78.30;;;;;;4974709;28;20054;-74
2023/04/26 06:31:41;;;;;;;14.80;2.20;;;6.70;74.30;;;;;;4995538;28;20052;-73
2023/04/26 06:34:08;;;;;;;12.38;1.80;;;6.80;75.50;;;;;;4973487;28;20057;-73
2023/04/26 06:36:34;;;;;;;9.27;1.95;;;6.70;74.70;;;;;;4977655;28;20420;-74
2023/04/26 06:39:02;;;;;;;6.00;1.38;;;7.00;75.20;;;;;;4996092;28;20045;-73
2023/04/26 06:41:28;;;;;;;10.73;1.95;;;8.10;72.20;;;;;;4974715;28;20537;-74
2023/04/26 06:43:55;;;;;;;9.10;1.95;;;9.00;68.30;;;;;;4992675;28;20057;-74
2023/04/26 06:46:22;;;;;;;14.77;2.03;;;9.10;70.40;;;;;;4995302;28;20050;-74
2023/04/26 06:48:52;;;;;;;7.03;1.50;;;9.80;68.20;;;;;;4975758;28;20073;-74
2023/04/26 06:51:19;;;;;;;7.82;1.90;;;10.90;63.50;;;;;;4976298;28;20049;-74
2023/04/26 06:53:47;;;;;;;14.50;2.40;;;10.60;64.20;;;;;;4977388;28;20046;-74
2023/04/26 06:56:14;;;;;;;13.07;1.60;;;10.50;62.00;;;;;;4992728;28;20068;-74
2023/04/26 06:58:58;;;;;;;9.35;1.83;;;10.50;60.80;;;;;;4992805;28;20510;-74
2023/04/26 07:01:27;;;;;;;15.18;1.65;;;10.60;64.70;;;;;;4974690;28;20079;-74
2023/04/26 07:03:58;;;;;;;11.10;2.03;;;10.30;63.00;;;;;;4977900;28;20057;-73
2023/04/26 07:06:25;;;;;;;7.63;1.42;;;10.90;62.80;;;;;;4991474;28;20144;-74
2023/04/26 07:08:52;;;;;;;7.95;1.73;;;11.10;62.80;;;;;;4996039;28;20533;-74
2023/04/26 07:11:20;;;;;;;13.23;3.90;;;10.90;61.50;;;;;;4991621;28;20100;-74
2023/04/26 07:13:49;;;;;;;9.55;2.00;;;10.80;61.80;;;;;;4975765;28;20487;-74
2023/04/26 07:16:17;;;;;;;11.05;1.63;;;11.00;59.00;;;;;;4991626;28;20085;-74
2023/04/26 07:18:43;;;;;;;8.02;1.80;;;10.00;59.90;;;;;;4994907;28;20135;-74
2023/04/26 07:21:10;;;;;;;13.38;1.95;;;10.40;62.80;;;;;;4993308;28;20067;-74
2023/04/26 07:23:37;;;;;;;14.02;2.05;;;10.90;61.50;;;;;;4991753;28;20065;-74
2023/04/26 07:26:04;;;;;;;10.35;2.08;;;11.60;60.30;;;;;;4993890;28;20080;-74
2023/04/26 07:28:31;;;;;;;9.30;1.77;;;12.00;57.20;;;;;;4976713;28;20726;-74
2023/04/26 07:30:59;;;;;;;8.48;2.08;;;11.20;59.50;;;;;;4989981;28;20050;-73
2023/04/26 07:33:26;;;;;;;15.13;2.25;;;11.40;57.20;;;;;;4973979;28;20100;-74
2023/04/26 07:35:57;;;;;;;8.45;1.90;;;10.30;61.50;;;;;;4984568;28;20060;-74
2023/04/26 07:38:24;;;;;;;7.65;1.70;;;10.80;58.60;;;;;;4992991;28;20468;-74
2023/04/26 07:40:52;;;;;;;4.78;1.90;;;10.50;58.90;;;;;;4990684;28;20305;-74
2023/04/26 07:43:20;;;;;;;12.73;1.80;;;10.60;58.10;;;;;;4974474;28;20050;-74
2023/04/26 07:45:46;;;;;;;9.43;1.95;;;10.60;58.20;;;;;;4991833;28;20139;-74
2023/04/26 07:48:13;;;;;;;8.25;1.90;;;10.40;60.40;;;;;;4993840;28;20045;-74
2023/04/26 07:50:40;;;;;;;12.05;2.05;;;11.00;59.30;;;;;;4975952;28;20475;-73
2023/04/26 07:53:07;;;;;;;8.88;1.60;;;11.00;57.20;;;;;;4994789;28;20054;-74
2023/04/26 07:55:35;;;;;;;6.70;1.85;;;10.80;60.20;;;;;;4974623;28;20466;-74
2023/04/26 07:58:04;;;;;;;12.15;2.08;;;10.90;58.20;;;;;;4992983;28;20046;-74
2023/04/26 08:00:31;;;;;;;10.23;1.95;;;11.40;55.90;;;;;;4991420;28;20050;-74
2023/04/26 08:02:58;;;;;;;12.65;2.65;;;11.00;58.20;;;;;;4991960;28;20053;-74
2023/04/26 08:05:26;;;;;;;7.38;1.73;;;10.60;55.50;;;;;;4991302;28;20060;-74
2023/04/26 08:07:53;;;;;;;11.07;2.00;;;11.00;55.60;;;;;;4993560;28;21335;-74
2023/04/26 08:10:20;;;;;;;16.45;2.40;;;10.30;53.70;;;;;;4972646;28;20093;-74
2023/04/26 08:12:47;;;;;;;10.65;1.60;;;10.30;58.50;;;;;;4992528;28;20049;-74
2023/04/26 08:15:14;;;;;;;14.20;3.28;;;11.40;58.50;;;;;;4993453;28;20054;-74
2023/04/26 08:17:41;;;;;;;12.02;2.15;;;11.40;57.20;;;;;;4976311;28;20103;-74
2023/04/26 08:20:08;;;;;;;5.68;1.58;;;11.10;53.20;;;;;;4982636;28;20453;-73
2023/04/26 08:22:35;;;;;;;11.90;2.25;;;10.90;52.40;;;;;;4974203;28;20049;-74
2023/04/26 08:25:03;;;;;;;9.75;1.77;;;11.10;58.10;;;;;;4994308;28;20065;-74
2023/04/26 08:27:30;;;;;;;7.50;1.70;;;11.70;52.60;;;;;;4989551;28;20509;-74
2023/04/26 08:29:57;;;;;;;9.80;2.10;;;11.40;52.30;;;;;;4973913;28;20399;-74
2023/04/26 08:32:25;;;;;;;7.28;1.80;;;11.10;55.60;;;;;;4994007;28;20053;-74
2023/04/26 08:34:51;;;;;;;7.50;1.67;;;11.60;52.80;;;;;;4994306;28;20057;-74
2023/04/26 08:37:18;;;;;;;8.82;2.28;;;11.70;51.60;;;;;;4971574;28;20411;-74
2023/04/26 08:39:45;;;;;;;6.95;1.92;;;11.00;55.20;;;;;;4994347;28;20060;-73
2023/04/26 08:42:15;;;;;;;13.88;1.95;;;11.70;53.30;;;;;;4994621;28;20131;-74
2023/04/26 08:44:44;;;;;;;11.90;2.25;;;12.10;52.80;;;;;;4990375;28;20514;-74
2023/04/26 08:47:46;;;;;;;15.35;1.90;;;12.30;53.00;;;;;;4971995;28;20140;-74
2023/04/26 08:50:15;;;;;;;8.80;1.67;;;12.70;52.00;;;;;;4976864;28;20054;-74
2023/04/26 08:52:43;;;;;;;14.27;1.80;;;12.90;49.20;;;;;;4993419;28;20077;-74
2023/04/26 08:55:15;;;;;;;6.68;2.08;;;12.80;52.30;;;;;;4972968;28;20045;-74
2023/04/26 08:57:45;;;;;;;5.95;1.48;;;13.90;49.40;;;;;;4991309;28;20382;-75
2023/04/26 09:00:14;;;;;;;14.25;1.63;;;13.50;46.60;;;;;;4994143;28;20468;-75
2023/04/26 09:02:49;;;;;;;14.60;2.13;;;12.70;45.40;;;;;;4990597;28;20053;-74
2023/04/26 09:05:22;;;;;;;5.97;1.60;;;12.10;49.20;;;;;;4973559;28;20060;-75
2023/04/26 09:07:52;;;;;;;10.63;2.10;;;12.80;49.50;;;;;;4993226;28;20068;-74
2023/04/26 09:10:21;;;;;;;8.82;1.77;;;13.30;47.60;;;;;;4989427;28;20227;-74
2023/04/26 09:12:52;;;;;;;8.52;1.95;;;12.70;46.70;;;;;;4991424;28;20377;-74
2023/04/26 09:15:26;;;;;;;6.30;1.90;;;11.80;47.00;;;;;;4980001;28;20084;-74
2023/04/26 09:17:53;;;;;;;8.20;1.80;;;11.30;48.80;;;;;;4995039;28;20141;-75
2023/04/26 09:20:22;;;;;;;16.38;2.05;;;12.00;50.70;;;;;;4994525;28;20065;-74
2023/04/26 09:22:51;;;;;;;7.78;1.70;;;13.10;48.00;;;;;;4994639;28;20058;-74
2023/04/26 09:25:27;;;;;;;8.10;2.15;;;13.00;45.40;;;;;;4977188;28;20554;-74
2023/04/26 09:27:55;;;;;;;9.27;1.92;;;12.40;47.50;;;;;;4992171;28;20061;-74
2023/04/26 09:30:22;;;;;;;6.55;1.83;;;12.30;51.50;;;;;;4997769;28;20099;-75
2023/04/26 09:33:05;;;;;;;12.25;2.10;;;13.60;48.30;;;;;;4997466;28;20108;-75
2023/04/26 09:35:36;;;;;;;9.23;1.80;;;13.50;48.90;;;;;;4992678;28;20497;-74
2023/04/26 09:38:08;;;;;;;7.05;1.80;;;14.10;46.00;;;;;;4991889;28;20050;-74
2023/04/26 09:40:40;;;;;;;5.47;2.10;;;13.60;45.90;;;;;;4994830;28;20054;-74
2023/04/26 09:43:08;;;;;;;8.70;2.03;;;13.00;47.00;;;;;;4996016;28;20161;-74
2023/04/26 09:45:52;;;;;;;6.75;1.92;;;12.40;45.90;;;;;;4993165;28;20050;-74
2023/04/26 09:48:21;;;;;;;12.73;2.35;;;11.60;48.10;;;;;;4997564;28;20628;-74
2023/04/26 09:50:53;;;;;;;4.82;2.22;;;12.10;49.60;;;;;;4979816;28;20096;-75
2023/04/26 09:53:53;;;;;;;6.60;2.03;;;12.90;50.60;;;;;;4990985;28;20811;-75
2023/04/26 09:56:22;;;;;;;9.57;2.35;;;13.10;46.40;;;;;;4954715;28;20173;-74
2023/04/26 09:58:52;;;;;;;4.85;2.08;;;12.90;48.60;;;;;;4996504;28;20058;-74
2023/04/26 10:01:19;;;;;;;9.05;1.95;;;14.20;48.00;;;;;;4995210;28;20053;-74
2023/04/26 10:03:46;;;;;;;6.90;1.70;;;14.80;41.80;;;;;;4995634;28;20053;-74
2023/04/26 10:06:13;;;;;;;5.07;1.85;;;13.90;41.80;;;;;;4996705;28;20569;-74
2023/04/26 10:08:40;;;;;;;5.60;2.00;;;12.50;43.70;;;;;;4994623;28;20045;-74
2023/04/26 10:11:10;;;;;;;7.05;1.80;;;12.40;48.60;;;;;;4995641;28;20050;-74
2023/04/26 10:13:38;;;;;;;5.43;1.75;;;13.90;47.30;;;;;;4995394;28;20053;-74
2023/04/26 10:16:05;;;;;;;7.72;2.10;;;15.50;45.70;;;;;;4994125;28;20168;-74
2023/04/26 10:18:33;;;;;;;6.45;1.77;;;15.70;42.80;;;;;;4993303;28;20974;-74
2023/04/26 10:21:25;;;;;;;4.65;1.52;;;14.90;40.70;;;;;;4992819;28;20057;-74
2023/04/26 10:23:53;;;;;;;7.80;1.85;;;14.70;42.20;;;;;;4992994;28;20134;-74
2023/04/26 10:26:53;;;;;;;9.82;2.00;;;14.10;41.80;;;;;;4978383;28;20486;-74
2023/04/26 10:29:21;;;;;;;8.85;1.63;;;12.90;42.90;;;;;;4995591;28;20574;-74
2023/04/26 10:32:08;;;;;;;6.72;1.50;;;12.40;45.40;;;;;;4991205;28;20077;-74
2023/04/26 10:34:35;;;;;;;5.72;1.63;;;13.10;46.00;;;;;;4995418;28;20128;-74
2023/04/26 10:37:08;;;;;;;2.25;1.23;;;14.80;41.10;;;;;;4994357;28;20058;-74
2023/04/26 10:39:36;;;;;;;4.88;1.48;;;13.80;40.90;;;;;;4995818;28;20062;-74
2023/04/26 10:42:22;;;;;;;7.85;1.70;;;13.80;45.20;;;;;;4994199;28;20108;-75
2023/04/26 10:45:11;;;;;;;7.60;1.80;;;14.40;39.70;;;;;;4984008;28;20441;-74
2023/04/26 10:47:38;;;;;;;6.25;1.50;;;13.70;43.40;;;;;;4982422;28;20050;-74
2023/04/26 10:50:10;;;;;;;8.40;2.03;;;13.00;43.20;;;;;;4973825;28;20058;-74
2023/04/26 10:53:05;;;;;;;7.68;1.70;;;13.90;45.80;;;;;;4993401;28;20073;-74
2023/04/26 10:55:39;;;;;;;4.55;2.10;;;15.60;42.00;;;;;;4987617;28;20053;-74
2023/04/26 10:58:32;;;;;;;6.87;1.63;;;16.90;40.20;;;;;;4993212;28;20072;-75
2023/04/26 11:01:15;;;;;;;9.13;1.77;;;17.80;39.40;;;;;;4995302;28;20057;-75
2023/04/26 11:04:00;;;;;;;9.02;1.30;;;18.10;37.50;;;;;;4994538;28;20443;-75
2023/04/26 11:06:49;;;;;;;6.43;1.55;;;17.90;38.90;;;;;;4991109;28;20050;-75
2023/04/26 11:09:32;;;;;;;10.57;2.10;;;18.80;37.20;;;;;;4993410;28;20525;-75
2023/04/26 11:11:59;;;;;;;8.30;1.95;;;19.70;36.70;;;;;;4996137;28;20045;-75
2023/04/26 11:14:27;;;;;;;3.13;1.55;;;20.00;38.20;;;;;;4990015;28;20518;-75
2023/04/26 11:16:53;;;;;;;5.75;1.52;;;20.60;38.00;;;;;;4992167;28;20054;-75
2023/04/26 11:19:21;;;;;;;9.13;1.98;;;20.20;36.30;;;;;;4995491;28;20455;-76
2023/04/26 11:21:48;;;;;;;2.63;1.70;;;19.70;37.10;;;;;;4992919;28;20530;-74
2023/04/26 11:24:14;;;;;;;7.80;1.48;;;20.00;35.90;;;;;;4975706;28;20434;-75
2023/04/26 11:26:49;;;;;;;7.68;1.70;;;20.10;33.50;;;;;;4975963;28;20629;-75
2023/04/26 11:29:20;;;;;;;4.78;1.73;;;19.90;35.30;;;;;;4992875;28;20058;-75
2023/04/26 11:31:55;;;;;;;6.68;2.20;;;20.20;34.50;;;;;;4992940;28;20507;-75
2023/04/26 11:34:35;;;;;;;4.30;1.38;;;19.20;37.40;;;;;;4992742;28;20050;-74
2023/04/26 11:37:03;;;;;;;4.30;1.60;;;18.60;32.70;;;;;;4993357;28;20054;-74
2023/04/26 11:39:31;;;;;;;9.55;2.35;;;17.60;33.30;;;;;;4975134;28;20510;-75
2023/04/26 11:42:09;;;;;;;6.28;2.13;;;16.30;36.60;;;;;;4991719;28;20694;-75
2023/04/26 11:44:37;;;;;;;13.55;2.10;;;16.40;39.80;;;;;;4992827;28;20081;-76
2023/04/26 11:47:05;;;;;;;9.98;2.10;;;17.80;39.20;;;;;;4991939;28;20498;-75
2023/04/26 11:49:36;;;;;;;6.40;1.55;;;18.60;39.00;;;;;;4973666;28;20883;-76
2023/04/26 11:52:04;;;;;;;6.45;1.90;;;19.30;34.40;;;;;;4992235;28;20054;-75
2023/04/26 11:54:33;;;;;;;5.68;2.35;;;19.30;38.90;;;;;;4973465;28;20957;-78
2023/04/26 11:57:01;;;;;;;6.53;2.10;;;19.40;39.30;;;;;;4990137;28;20511;-76
2023/04/26 11:59:29;;;;;;;9.70;2.70;;;19.60;38.10;;;;;;4993213;28;20060;-77
2023/04/26 12:01:57;;;;;;;9.45;3.03;;;20.50;38.00;;;;;;4975567;28;20120;-78
2023/04/26 12:04:28;;;;;;;6.10;2.13;;;20.20;36.30;;;;;;4987537;28;20046;-76
2023/04/26 12:06:57;;;;;;;9.50;1.92;;;20.40;34.30;;;;;;4974008;28;20060;-76
2023/04/26 12:09:30;;;;;;;4.10;1.38;;;20.50;35.10;;;;;;4973631;28;20081;-76
2023/04/26 12:11:58;;;;;;;4.15;1.70;;;21.20;36.00;;;;;;4990462;28;20819;-76
2023/04/26 12:14:36;;;;;;;3.60;1.60;;;21.40;35.10;;;;;;4992453;28;20517;-76
2023/04/26 12:17:05;;;;;;;5.55;1.45;;;22.10;33.00;;;;;;4973810;28;20081;-74
2023/04/26 12:19:33;;;;;;;3.83;1.75;;;21.40;33.20;;;;;;4989668;28;20159;-74
2023/04/26 12:22:00;;;;;;;5.97;1.77;;;20.30;33.10;;;;;;4989410;28;20525;-74
2023/04/26 12:24:31;;;;;;;6.40;1.77;;;18.10;34.40;;;;;;4976346;28;20080;-75
2023/04/26 12:26:58;;;;;;;11.02;1.77;;;17.10;35.60;;;;;;4990455;28;20487;-75
2023/04/26 12:29:29;;;;;;;6.07;2.25;;;15.90;37.60;;;;;;4973340;28;20058;-74
2023/04/26 12:31:57;;;;;;;10.45;1.90;;;15.30;37.40;;;;;;4993633;28;20072;-74
2023/04/26 12:34:24;;;;;;;4.10;1.35;;;14.70;37.10;;;;;;4992191;28;20061;-75
2023/04/26 12:36:51;;;;;;;2.88;1.27;;;14.10;38.60;;;;;;4993278;28;20145;-74
2023/04/26 12:39:18;;;;;;;3.90;1.40;;;14.00;38.90;;;;;;4994010;28;20061;-74
2023/04/26 12:41:45;;;;;;;6.88;2.40;;;13.70;37.80;;;;;;4976790;28;20084;-74
2023/04/26 12:44:13;;;;;;;6.20;1.67;;;13.60;39.80;;;;;;4991292;28;20441;-74
2023/04/26 12:46:40;;;;;;;4.47;1.50;;;13.00;39.70;;;;;;4974172;28;20568;-74
2023/04/26 12:49:07;;;;;;;9.20;1.98;;;12.90;40.90;;;;;;4977693;28;20499;-74
2023/04/26 12:51:34;;;;;;;8.20;1.77;;;12.90;42.00;;;;;;4983620;28;20057;-73
2023/04/26 12:54:01;;;;;;;3.47;1.55;;;13.40;43.80;;;;;;4977834;28;20050;-74
2023/04/26 12:56:29;;;;;;;8.10;1.77;;;15.00;44.50;;;;;;4997713;28;20049;-74